sensor_id;sensor_type;location;lat;lon;timestamp;P1;durP1;ratioP1;P2;durP2;ratioP2
45940;SDS011;31858;46.008;8.978;2022-12-07T00:07:22;1.67;;;1.58;;
45940;SDS011;31858;46.008;8.978;2022-12-07T00:17:25;2.13;;;1.58;;
45940;SDS011;31858;46.008;8.978;2022-12-07T00:27:26;2.72;;;1.70;;
45940;SDS011;31858;46.008;8.978;2022-12-07T00:37:30;3.22;;;1.63;;
45940;SDS011;31858;46.008;8.978;2022-12-07T00:47:31;1.63;;;1.52;;
45940;SDS011;31858;46.008;8.978;2022-12-07T00:57:34;1.35;;;1.25;;
45940;SDS011;31858;46.008;8.978;2022-12-07T01:07:36;1.40;;;1.33;;
45940;SDS011;31858;46.008;8.978;2022-12-07T01:17:39;2.17;;;1.90;;
45940;SDS011;31858;46.008;8.978;2022-12-07T01:27:41;1.52;;;1.30;;
45940;SDS011;31858;46.008;8.978;2022-12-07T01:37:44;4.88;;;1.13;;
45940;SDS011;31858;46.008;8.978;2022-12-07T01:47:46;1.75;;;1.40;;
45940;SDS011;31858;46.008;8.978;2022-12-07T01:57:52;1.00;;;1.00;;
45940;SDS011;31858;46.008;8.978;2022-12-07T02:07:55;0.98;;;0.98;;
45940;SDS011;31858;46.008;8.978;2022-12-07T02:18:01;2.08;;;1.80;;
45940;SDS011;31858;46.008;8.978;2022-12-07T02:28:09;1.33;;;1.23;;
45940;SDS011;31858;46.008;8.978;2022-12-07T02:38:23;1.70;;;1.60;;
45940;SDS011;31858;46.008;8.978;2022-12-07T02:48:30;2.13;;;1.52;;
45940;SDS011;31858;46.008;8.978;2022-12-07T02:58:39;1.90;;;1.60;;
45940;SDS011;31858;46.008;8.978;2022-12-07T03:08:52;1.33;;;1.15;;
45940;SDS011;31858;46.008;8.978;2022-12-07T03:19:05;1.65;;;1.50;;
45940;SDS011;31858;46.008;8.978;2022-12-07T03:29:11;1.35;;;1.25;;
45940;SDS011;31858;46.008;8.978;2022-12-07T03:39:23;3.92;;;1.50;;
45940;SDS011;31858;46.008;8.978;2022-12-07T03:49:30;1.00;;;1.00;;
45940;SDS011;31858;46.008;8.978;2022-12-07T03:59:39;1.80;;;1.40;;
45940;SDS011;31858;46.008;8.978;2022-12-07T04:09:42;1.30;;;1.20;;
45940;SDS011;31858;46.008;8.978;2022-12-07T04:19:45;1.40;;;1.30;;
45940;SDS011;31858;46.008;8.978;2022-12-07T04:29:47;1.75;;;1.13;;
45940;SDS011;31858;46.008;8.978;2022-12-07T04:39:50;1.90;;;1.23;;
45940;SDS011;31858;46.008;8.978;2022-12-07T04:49:52;2.47;;;1.67;;
45940;SDS011;31858;46.008;8.978;2022-12-07T04:59:55;1.95;;;1.33;;
45940;SDS011;31858;46.008;8.978;2022-12-07T05:09:56;1.77;;;1.30;;
45940;SDS011;31858;46.008;8.978;2022-12-07T05:19:59;4.15;;;1.80;;
45940;SDS011;31858;46.008;8.978;2022-12-07T05:30:01;2.00;;;1.40;;
45940;SDS011;31858;46.008;8.978;2022-12-07T05:40:05;1.83;;;1.20;;
45940;SDS011;31858;46.008;8.978;2022-12-07T05:50:07;1.20;;;1.20;;
45940;SDS011;31858;46.008;8.978;2022-12-07T06:00:11;1.35;;;1.25;;
45940;SDS011;31858;46.008;8.978;2022-12-07T06:10:13;1.35;;;1.23;;
45940;SDS011;31858;46.008;8.978;2022-12-07T06:20:16;3.28;;;1.70;;
45940;SDS011;31858;46.008;8.978;2022-12-07T06:30:18;2.85;;;2.28;;
45940;SDS011;31858;46.008;8.978;2022-12-07T06:40:21;1.50;;;1.30;;
45940;SDS011;31858;46.008;8.978;2022-12-07T06:50:22;1.30;;;1.20;;
45940;SDS011;31858;46.008;8.978;2022-12-07T07:00:25;3.55;;;1.20;;
45940;SDS011;31858;46.008;8.978;2022-12-07T07:10:27;1.40;;;1.30;;
45940;SDS011;31858;46.008;8.978;2022-12-07T07:20:30;2.38;;;1.45;;
45940;SDS011;31858;46.008;8.978;2022-12-07T07:30:31;4.78;;;2.83;;
45940;SDS011;31858;46.008;8.978;2022-12-07T07:40:34;1.25;;;1.15;;
45940;SDS011;31858;46.008;8.978;2022-12-07T07:50:36;1.52;;;1.42;;
45940;SDS011;31858;46.008;8.978;2022-12-07T08:00:39;1.73;;;1.30;;
45940;SDS011;31858;46.008;8.978;2022-12-07T08:10:41;1.65;;;1.27;;
45940;SDS011;31858;46.008;8.978;2022-12-07T08:20:44;1.40;;;1.30;;
45940;SDS011;31858;46.008;8.978;2022-12-07T08:30:45;1.42;;;1.33;;
45940;SDS011;31858;46.008;8.978;2022-12-07T08:40:54;2.72;;;1.33;;
45940;SDS011;31858;46.008;8.978;2022-12-07T08:50:56;2.13;;;1.38;;
45940;SDS011;31858;46.008;8.978;2022-12-07T09:01:00;3.47;;;2.80;;
45940;SDS011;31858;46.008;8.978;2022-12-07T09:11:02;4.03;;;1.25;;
45940;SDS011;31858;46.008;8.978;2022-12-07T09:21:05;1.35;;;1.25;;
45940;SDS011;31858;46.008;8.978;2022-12-07T09:31:06;3.33;;;1.80;;
45940;SDS011;31858;46.008;8.978;2022-12-07T09:41:09;6.93;;;3.75;;
45940;SDS011;31858;46.008;8.978;2022-12-07T09:51:13;3.97;;;3.30;;
45940;SDS011;31858;46.008;8.978;2022-12-07T10:01:19;10.15;;;3.60;;
45940;SDS011;31858;46.008;8.978;2022-12-07T10:11:22;5.55;;;3.03;;
45940;SDS011;31858;46.008;8.978;2022-12-07T10:21:25;3.78;;;2.70;;
45940;SDS011;31858;46.008;8.978;2022-12-07T10:31:27;1.88;;;1.70;;
45940;SDS011;31858;46.008;8.978;2022-12-07T10:41:31;3.05;;;2.00;;
45940;SDS011;31858;46.008;8.978;2022-12-07T10:51:33;3.78;;;2.20;;
45940;SDS011;31858;46.008;8.978;2022-12-07T11:01:48;4.22;;;3.55;;
45940;SDS011;31858;46.008;8.978;2022-12-07T11:11:57;6.50;;;3.50;;
45940;SDS011;31858;46.008;8.978;2022-12-07T11:22:09;2.77;;;2.10;;
45940;SDS011;31858;46.008;8.978;2022-12-07T11:32:17;2.43;;;1.80;;
45940;SDS011;31858;46.008;8.978;2022-12-07T11:42:36;1.88;;;1.70;;
45940;SDS011;31858;46.008;8.978;2022-12-07T11:52:43;3.17;;;2.08;;
45940;SDS011;31858;46.008;8.978;2022-12-07T12:02:51;4.03;;;2.17;;
45940;SDS011;31858;46.008;8.978;2022-12-07T12:13:02;2.60;;;2.22;;
45940;SDS011;31858;46.008;8.978;2022-12-07T12:23:17;4.55;;;2.03;;
45940;SDS011;31858;46.008;8.978;2022-12-07T12:33:22;2.40;;;2.20;;
45940;SDS011;31858;46.008;8.978;2022-12-07T12:43:50;3.15;;;2.80;;
45940;SDS011;31858;46.008;8.978;2022-12-07T12:53:53;3.03;;;2.70;;
45940;SDS011;31858;46.008;8.978;2022-12-07T13:04:17;5.25;;;2.88;;
45940;SDS011;31858;46.008;8.978;2022-12-07T13:14:40;5.28;;;2.83;;
45940;SDS011;31858;46.008;8.978;2022-12-07T13:25:03;5.13;;;3.17;;
45940;SDS011;31858;46.008;8.978;2022-12-07T13:35:28;7.68;;;3.30;;
45940;SDS011;31858;46.008;8.978;2022-12-07T13:45:32;3.40;;;2.95;;
45940;SDS011;31858;46.008;8.978;2022-12-07T13:55:49;3.63;;;2.90;;
45940;SDS011;31858;46.008;8.978;2022-12-07T14:06:04;5.15;;;2.90;;
45940;SDS011;31858;46.008;8.978;2022-12-07T14:16:19;8.10;;;4.20;;
45940;SDS011;31858;46.008;8.978;2022-12-07T14:26:27;4.32;;;2.75;;
45940;SDS011;31858;46.008;8.978;2022-12-07T14:36:28;3.63;;;3.13;;
45940;SDS011;31858;46.008;8.978;2022-12-07T14:46:31;5.63;;;3.22;;
45940;SDS011;31858;46.008;8.978;2022-12-07T14:56:33;3.90;;;2.60;;
45940;SDS011;31858;46.008;8.978;2022-12-07T15:06:36;3.95;;;3.45;;
45940;SDS011;31858;46.008;8.978;2022-12-07T15:16:38;6.47;;;3.50;;
45940;SDS011;31858;46.008;8.978;2022-12-07T15:26:43;4.40;;;3.17;;
45940;SDS011;31858;46.008;8.978;2022-12-07T15:36:44;4.30;;;3.22;;
45940;SDS011;31858;46.008;8.978;2022-12-07T15:46:47;5.90;;;3.30;;
45940;SDS011;31858;46.008;8.978;2022-12-07T15:56:49;8.15;;;3.08;;
45940;SDS011;31858;46.008;8.978;2022-12-07T16:06:52;7.82;;;3.60;;
45940;SDS011;31858;46.008;8.978;2022-12-07T16:16:53;9.23;;;5.35;;
45940;SDS011;31858;46.008;8.978;2022-12-07T16:26:56;8.88;;;6.38;;
45940;SDS011;31858;46.008;8.978;2022-12-07T16:36:58;8.98;;;5.85;;
45940;SDS011;31858;46.008;8.978;2022-12-07T16:47:01;8.45;;;5.45;;
45940;SDS011;31858;46.008;8.978;2022-12-07T16:57:03;16.58;;;10.48;;
45940;SDS011;31858;46.008;8.978;2022-12-07T17:07:05;20.42;;;12.25;;
45940;SDS011;31858;46.008;8.978;2022-12-07T17:17:08;20.13;;;14.70;;
45940;SDS011;31858;46.008;8.978;2022-12-07T17:27:11;19.17;;;13.32;;
45940;SDS011;31858;46.008;8.978;2022-12-07T17:37:12;21.00;;;15.52;;
45940;SDS011;31858;46.008;8.978;2022-12-07T17:47:15;19.38;;;15.55;;
45940;SDS011;31858;46.008;8.978;2022-12-07T17:57:18;19.92;;;15.23;;
45940;SDS011;31858;46.008;8.978;2022-12-07T18:07:21;21.08;;;15.75;;
45940;SDS011;31858;46.008;8.978;2022-12-07T18:17:22;17.05;;;12.45;;
45940;SDS011;31858;46.008;8.978;2022-12-07T18:27:25;12.50;;;8.15;;
45940;SDS011;31858;46.008;8.978;2022-12-07T18:37:27;13.27;;;8.75;;
45940;SDS011;31858;46.008;8.978;2022-12-07T18:47:30;7.90;;;6.43;;
45940;SDS011;31858;46.008;8.978;2022-12-07T18:57:31;8.57;;;5.93;;
45940;SDS011;31858;46.008;8.978;2022-12-07T19:07:35;8.32;;;6.22;;
45940;SDS011;31858;46.008;8.978;2022-12-07T19:17:36;6.88;;;4.50;;
45940;SDS011;31858;46.008;8.978;2022-12-07T19:27:40;8.88;;;5.45;;
45940;SDS011;31858;46.008;8.978;2022-12-07T19:37:41;8.65;;;5.93;;
45940;SDS011;31858;46.008;8.978;2022-12-07T19:47:44;9.80;;;7.15;;
45940;SDS011;31858;46.008;8.978;2022-12-07T19:57:46;13.30;;;8.73;;
45940;SDS011;31858;46.008;8.978;2022-12-07T20:07:49;12.68;;;8.57;;
45940;SDS011;31858;46.008;8.978;2022-12-07T20:17:50;10.25;;;7.72;;
45940;SDS011;31858;46.008;8.978;2022-12-07T20:27:53;7.00;;;5.50;;
45940;SDS011;31858;46.008;8.978;2022-12-07T20:37:55;6.47;;;4.60;;
45940;SDS011;31858;46.008;8.978;2022-12-07T20:47:58;9.48;;;6.60;;
45940;SDS011;31858;46.008;8.978;2022-12-07T20:57:59;8.85;;;6.50;;
45940;SDS011;31858;46.008;8.978;2022-12-07T21:08:02;8.55;;;6.72;;
45940;SDS011;31858;46.008;8.978;2022-12-07T21:18:04;10.77;;;7.03;;
45940;SDS011;31858;46.008;8.978;2022-12-07T21:28:07;9.05;;;6.93;;
45940;SDS011;31858;46.008;8.978;2022-12-07T21:38:09;7.82;;;5.82;;
45940;SDS011;31858;46.008;8.978;2022-12-07T21:48:11;7.95;;;5.18;;
45940;SDS011;31858;46.008;8.978;2022-12-07T21:58:13;6.70;;;5.45;;
45940;SDS011;31858;46.008;8.978;2022-12-07T22:08:16;8.20;;;6.07;;
45940;SDS011;31858;46.008;8.978;2022-12-07T22:18:18;6.15;;;5.53;;
45940;SDS011;31858;46.008;8.978;2022-12-07T22:28:21;7.03;;;4.97;;
45940;SDS011;31858;46.008;8.978;2022-12-07T22:38:22;7.28;;;5.15;;
45940;SDS011;31858;46.008;8.978;2022-12-07T22:48:26;6.22;;;4.22;;
45940;SDS011;31858;46.008;8.978;2022-12-07T22:58:27;6.07;;;4.13;;
45940;SDS011;31858;46.008;8.978;2022-12-07T23:08:30;6.22;;;4.22;;
45940;SDS011;31858;46.008;8.978;2022-12-07T23:18:32;7.03;;;4.45;;
45940;SDS011;31858;46.008;8.978;2022-12-07T23:28:35;8.32;;;5.30;;
45940;SDS011;31858;46.008;8.978;2022-12-07T23:38:38;7.03;;;4.43;;
45940;SDS011;31858;46.008;8.978;2022-12-07T23:48:43;5.53;;;4.65;;
45940;SDS011;31858;46.008;8.978;2022-12-07T23:58:45;7.63;;;3.97;;
